sensor_id;sensor_type;location;lat;lon;timestamp;temperature;humidity
48728;DHT22;34527;45.618;5.130;2023-12-20T00:01:05;2.90;99.90
48728;DHT22;34527;45.618;5.130;2023-12-20T00:03:31;2.90;99.90
48728;DHT22;34527;45.618;5.130;2023-12-20T00:05:56;2.80;99.90
48728;DHT22;34527;45.618;5.130;2023-12-20T00:08:22;2.90;99.90
48728;DHT22;34527;45.618;5.130;2023-12-20T00:10:47;2.90;99.90
48728;DHT22;34527;45.618;5.130;2023-12-20T00:13:13;2.90;99.90
48728;DHT22;34527;45.618;5.130;2023-12-20T00:15:39;2.80;99.90
48728;DHT22;34527;45.618;5.130;2023-12-20T00:18:04;2.90;99.90
48728;DHT22;34527;45.618;5.130;2023-12-20T00:20:30;3.00;99.90
48728;DHT22;34527;45.618;5.130;2023-12-20T00:22:57;3.00;99.90
48728;DHT22;34527;45.618;5.130;2023-12-20T00:25:25;3.00;99.90
48728;DHT22;34527;45.618;5.130;2023-12-20T00:27:51;3.00;99.90
48728;DHT22;34527;45.618;5.130;2023-12-20T00:30:17;3.10;99.90
48728;DHT22;34527;45.618;5.130;2023-12-20T00:32:43;3.10;99.90
48728;DHT22;34527;45.618;5.130;2023-12-20T00:35:12;3.10;99.90
48728;DHT22;34527;45.618;5.130;2023-12-20T00:37:38;3.10;99.90
48728;DHT22;34527;45.618;5.130;2023-12-20T00:40:04;3.10;99.90
48728;DHT22;34527;45.618;5.130;2023-12-20T00:42:30;3.10;99.90
48728;DHT22;34527;45.618;5.130;2023-12-20T00:44:55;3.10;99.90
48728;DHT22;34527;45.618;5.130;2023-12-20T00:47:21;3.10;99.90
48728;DHT22;34527;45.618;5.130;2023-12-20T00:49:47;3.20;99.90
48728;DHT22;34527;45.618;5.130;2023-12-20T00:52:13;3.10;99.90
48728;DHT22;34527;45.618;5.130;2023-12-20T00:54:38;3.20;99.90
48728;DHT22;34527;45.618;5.130;2023-12-20T00:57:04;3.20;99.90
48728;DHT22;34527;45.618;5.130;2023-12-20T00:59:30;3.00;99.90
48728;DHT22;34527;45.618;5.130;2023-12-20T01:01:55;3.10;99.90
48728;DHT22;34527;45.618;5.130;2023-12-20T01:04:21;3.20;99.90
48728;DHT22;34527;45.618;5.130;2023-12-20T01:06:47;3.20;99.90
48728;DHT22;34527;45.618;5.130;2023-12-20T01:09:12;3.20;99.90
48728;DHT22;34527;45.618;5.130;2023-12-20T01:11:38;3.20;99.90
48728;DHT22;34527;45.618;5.130;2023-12-20T01:14:03;3.20;99.90
48728;DHT22;34527;45.618;5.130;2023-12-20T01:16:29;3.30;99.90
48728;DHT22;34527;45.618;5.130;2023-12-20T01:18:54;3.30;99.90
48728;DHT22;34527;45.618;5.130;2023-12-20T01:21:20;3.30;99.90
48728;DHT22;34527;45.618;5.130;2023-12-20T01:23:46;3.20;99.90
48728;DHT22;34527;45.618;5.130;2023-12-20T01:26:11;3.20;99.90
48728;DHT22;34527;45.618;5.130;2023-12-20T01:28:37;3.30;99.90
48728;DHT22;34527;45.618;5.130;2023-12-20T01:31:03;3.30;99.90
48728;DHT22;34527;45.618;5.130;2023-12-20T01:33:29;3.30;99.90
48728;DHT22;34527;45.618;5.130;2023-12-20T01:35:55;3.30;99.90
48728;DHT22;34527;45.618;5.130;2023-12-20T01:38:20;3.30;99.90
48728;DHT22;34527;45.618;5.130;2023-12-20T01:40:46;3.40;99.90
48728;DHT22;34527;45.618;5.130;2023-12-20T01:43:11;3.30;99.90
48728;DHT22;34527;45.618;5.130;2023-12-20T01:45:38;3.30;99.90
48728;DHT22;34527;45.618;5.130;2023-12-20T01:48:05;3.20;99.90
48728;DHT22;34527;45.618;5.130;2023-12-20T01:50:31;3.30;99.90
48728;DHT22;34527;45.618;5.130;2023-12-20T01:52:59;3.30;99.90
48728;DHT22;34527;45.618;5.130;2023-12-20T01:55:27;3.30;99.90
48728;DHT22;34527;45.618;5.130;2023-12-20T01:57:55;3.30;99.90
48728;DHT22;34527;45.618;5.130;2023-12-20T02:00:21;3.30;99.90
48728;DHT22;34527;45.618;5.130;2023-12-20T02:02:50;3.20;99.90
48728;DHT22;34527;45.618;5.130;2023-12-20T02:05:18;3.20;99.90
48728;DHT22;34527;45.618;5.130;2023-12-20T02:07:43;3.20;99.90
48728;DHT22;34527;45.618;5.130;2023-12-20T02:10:11;3.20;99.90
48728;DHT22;34527;45.618;5.130;2023-12-20T02:12:36;3.20;99.90
48728;DHT22;34527;45.618;5.130;2023-12-20T02:15:02;3.20;99.90
48728;DHT22;34527;45.618;5.130;2023-12-20T02:17:29;3.10;99.90
48728;DHT22;34527;45.618;5.130;2023-12-20T02:19:55;3.20;99.90
48728;DHT22;34527;45.618;5.130;2023-12-20T02:22:20;3.20;99.90
48728;DHT22;34527;45.618;5.130;2023-12-20T02:24:46;3.20;99.90
48728;DHT22;34527;45.618;5.130;2023-12-20T02:27:12;3.20;99.90
48728;DHT22;34527;45.618;5.130;2023-12-20T02:29:38;3.20;99.90
48728;DHT22;34527;45.618;5.130;2023-12-20T02:32:03;3.20;99.90
48728;DHT22;34527;45.618;5.130;2023-12-20T02:34:29;3.20;99.90
48728;DHT22;34527;45.618;5.130;2023-12-20T02:36:55;3.20;99.90
48728;DHT22;34527;45.618;5.130;2023-12-20T02:39:21;3.20;99.90
48728;DHT22;34527;45.618;5.130;2023-12-20T02:41:48;3.20;99.90
48728;DHT22;34527;45.618;5.130;2023-12-20T02:44:13;3.30;99.90
48728;DHT22;34527;45.618;5.130;2023-12-20T02:46:39;3.20;99.90
48728;DHT22;34527;45.618;5.130;2023-12-20T02:49:06;3.10;99.90
48728;DHT22;34527;45.618;5.130;2023-12-20T02:51:31;3.20;99.90
48728;DHT22;34527;45.618;5.130;2023-12-20T02:53:57;3.20;99.90
48728;DHT22;34527;45.618;5.130;2023-12-20T02:56:22;3.20;99.90
48728;DHT22;34527;45.618;5.130;2023-12-20T02:58:48;3.30;99.90
48728;DHT22;34527;45.618;5.130;2023-12-20T03:01:14;3.30;99.90
48728;DHT22;34527;45.618;5.130;2023-12-20T03:03:39;3.30;99.90
48728;DHT22;34527;45.618;5.130;2023-12-20T03:06:05;3.30;99.90
48728;DHT22;34527;45.618;5.130;2023-12-20T03:08:31;3.30;99.90
48728;DHT22;34527;45.618;5.130;2023-12-20T03:10:56;3.30;99.90
48728;DHT22;34527;45.618;5.130;2023-12-20T03:13:22;3.30;99.90
48728;DHT22;34527;45.618;5.130;2023-12-20T03:15:47;3.40;99.90
48728;DHT22;34527;45.618;5.130;2023-12-20T03:18:13;3.40;99.90
48728;DHT22;34527;45.618;5.130;2023-12-20T03:20:38;3.30;99.90
48728;DHT22;34527;45.618;5.130;2023-12-20T03:23:06;3.40;99.90
48728;DHT22;34527;45.618;5.130;2023-12-20T03:25:31;3.40;99.90
48728;DHT22;34527;45.618;5.130;2023-12-20T03:27:57;3.40;99.90
48728;DHT22;34527;45.618;5.130;2023-12-20T03:30:23;3.40;99.90
48728;DHT22;34527;45.618;5.130;2023-12-20T03:32:48;3.40;99.90
48728;DHT22;34527;45.618;5.130;2023-12-20T03:35:14;3.40;99.90
48728;DHT22;34527;45.618;5.130;2023-12-20T03:37:40;3.40;99.90
48728;DHT22;34527;45.618;5.130;2023-12-20T03:40:05;3.40;99.90
48728;DHT22;34527;45.618;5.130;2023-12-20T03:42:31;3.40;99.90
48728;DHT22;34527;45.618;5.130;2023-12-20T03:44:57;3.50;99.90
48728;DHT22;34527;45.618;5.130;2023-12-20T03:47:22;3.50;99.90
48728;DHT22;34527;45.618;5.130;2023-12-20T03:49:48;3.40;99.90
48728;DHT22;34527;45.618;5.130;2023-12-20T03:52:13;3.50;99.90
48728;DHT22;34527;45.618;5.130;2023-12-20T03:54:40;3.60;99.90
48728;DHT22;34527;45.618;5.130;2023-12-20T03:57:07;3.60;99.90
48728;DHT22;34527;45.618;5.130;2023-12-20T03:59:37;3.50;99.90
48728;DHT22;34527;45.618;5.130;2023-12-20T04:02:03;3.50;99.90
48728;DHT22;34527;45.618;5.130;2023-12-20T04:04:29;3.50;99.90
48728;DHT22;34527;45.618;5.130;2023-12-20T04:06:54;3.50;99.90
48728;DHT22;34527;45.618;5.130;2023-12-20T04:09:20;3.60;99.90
48728;DHT22;34527;45.618;5.130;2023-12-20T04:11:45;3.60;99.90
48728;DHT22;34527;45.618;5.130;2023-12-20T04:14:11;3.60;99.90
48728;DHT22;34527;45.618;5.130;2023-12-20T04:16:37;3.60;99.90
48728;DHT22;34527;45.618;5.130;2023-12-20T04:19:02;3.60;99.90
48728;DHT22;34527;45.618;5.130;2023-12-20T04:21:28;3.60;99.90
48728;DHT22;34527;45.618;5.130;2023-12-20T04:23:54;3.70;99.90
48728;DHT22;34527;45.618;5.130;2023-12-20T04:26:19;3.60;99.90
48728;DHT22;34527;45.618;5.130;2023-12-20T04:28:45;3.70;99.90
48728;DHT22;34527;45.618;5.130;2023-12-20T04:31:10;3.70;99.90
48728;DHT22;34527;45.618;5.130;2023-12-20T04:33:36;3.70;99.90
48728;DHT22;34527;45.618;5.130;2023-12-20T04:36:02;3.70;99.90
48728;DHT22;34527;45.618;5.130;2023-12-20T04:38:27;3.80;99.90
48728;DHT22;34527;45.618;5.130;2023-12-20T04:40:53;3.70;99.90
48728;DHT22;34527;45.618;5.130;2023-12-20T04:43:18;3.80;99.90
48728;DHT22;34527;45.618;5.130;2023-12-20T04:45:44;3.80;99.90
48728;DHT22;34527;45.618;5.130;2023-12-20T04:48:09;3.80;99.90
48728;DHT22;34527;45.618;5.130;2023-12-20T04:50:35;3.80;99.90
48728;DHT22;34527;45.618;5.130;2023-12-20T04:53:01;3.70;99.90
48728;DHT22;34527;45.618;5.130;2023-12-20T04:55:26;3.80;99.90
48728;DHT22;34527;45.618;5.130;2023-12-20T04:57:52;3.80;99.90
48728;DHT22;34527;45.618;5.130;2023-12-20T05:00:17;3.80;99.90
48728;DHT22;34527;45.618;5.130;2023-12-20T05:02:43;3.80;99.90
48728;DHT22;34527;45.618;5.130;2023-12-20T05:05:09;3.80;99.90
48728;DHT22;34527;45.618;5.130;2023-12-20T05:07:35;3.70;99.90
48728;DHT22;34527;45.618;5.130;2023-12-20T05:10:00;3.80;99.90
48728;DHT22;34527;45.618;5.130;2023-12-20T05:12:26;3.70;99.90
48728;DHT22;34527;45.618;5.130;2023-12-20T05:14:52;3.70;99.90
48728;DHT22;34527;45.618;5.130;2023-12-20T05:17:18;3.80;99.90
48728;DHT22;34527;45.618;5.130;2023-12-20T05:19:45;3.80;99.90
48728;DHT22;34527;45.618;5.130;2023-12-20T05:22:11;3.80;99.90
48728;DHT22;34527;45.618;5.130;2023-12-20T05:24:37;3.90;99.90
48728;DHT22;34527;45.618;5.130;2023-12-20T05:27:02;3.90;99.90
48728;DHT22;34527;45.618;5.130;2023-12-20T05:29:28;3.90;99.90
48728;DHT22;34527;45.618;5.130;2023-12-20T05:31:54;3.90;99.90
48728;DHT22;34527;45.618;5.130;2023-12-20T05:34:19;3.90;99.90
48728;DHT22;34527;45.618;5.130;2023-12-20T05:36:45;3.90;99.90
48728;DHT22;34527;45.618;5.130;2023-12-20T05:39:11;3.90;99.90
48728;DHT22;34527;45.618;5.130;2023-12-20T05:41:37;3.80;99.90
48728;DHT22;34527;45.618;5.130;2023-12-20T05:44:02;3.80;99.90
48728;DHT22;34527;45.618;5.130;2023-12-20T05:46:28;3.80;99.90
48728;DHT22;34527;45.618;5.130;2023-12-20T05:48:54;3.80;99.90
48728;DHT22;34527;45.618;5.130;2023-12-20T05:51:19;3.80;99.90
48728;DHT22;34527;45.618;5.130;2023-12-20T05:53:45;3.80;99.90
48728;DHT22;34527;45.618;5.130;2023-12-20T05:56:11;3.70;99.90
48728;DHT22;34527;45.618;5.130;2023-12-20T05:58:38;3.70;99.90
48728;DHT22;34527;45.618;5.130;2023-12-20T06:01:05;3.70;99.90
48728;DHT22;34527;45.618;5.130;2023-12-20T06:03:31;3.70;99.90
48728;DHT22;34527;45.618;5.130;2023-12-20T06:05:56;3.70;99.90
48728;DHT22;34527;45.618;5.130;2023-12-20T06:08:22;3.80;99.90
48728;DHT22;34527;45.618;5.130;2023-12-20T06:10:48;3.70;99.90
48728;DHT22;34527;45.618;5.130;2023-12-20T06:13:13;3.80;99.90
48728;DHT22;34527;45.618;5.130;2023-12-20T06:15:39;3.80;99.90
48728;DHT22;34527;45.618;5.130;2023-12-20T06:18:08;3.80;99.90
48728;DHT22;34527;45.618;5.130;2023-12-20T06:20:33;3.80;99.90
48728;DHT22;34527;45.618;5.130;2023-12-20T06:22:59;3.70;99.90
48728;DHT22;34527;45.618;5.130;2023-12-20T06:25:25;3.70;99.90
48728;DHT22;34527;45.618;5.130;2023-12-20T06:27:50;3.70;99.90
48728;DHT22;34527;45.618;5.130;2023-12-20T06:30:16;3.80;99.90
48728;DHT22;34527;45.618;5.130;2023-12-20T06:32:42;3.80;99.90
48728;DHT22;34527;45.618;5.130;2023-12-20T06:35:08;3.80;99.90
48728;DHT22;34527;45.618;5.130;2023-12-20T06:37:34;3.80;99.90
48728;DHT22;34527;45.618;5.130;2023-12-20T06:40:00;3.80;99.90
48728;DHT22;34527;45.618;5.130;2023-12-20T06:42:26;3.80;99.90
48728;DHT22;34527;45.618;5.130;2023-12-20T06:44:52;3.80;99.90
48728;DHT22;34527;45.618;5.130;2023-12-20T06:47:18;3.90;99.90
48728;DHT22;34527;45.618;5.130;2023-12-20T06:49:43;3.90;99.90
48728;DHT22;34527;45.618;5.130;2023-12-20T06:52:09;3.90;99.90
48728;DHT22;34527;45.618;5.130;2023-12-20T06:54:34;3.90;99.90
48728;DHT22;34527;45.618;5.130;2023-12-20T06:57:00;3.90;99.90
48728;DHT22;34527;45.618;5.130;2023-12-20T06:59:28;3.90;99.90
48728;DHT22;34527;45.618;5.130;2023-12-20T07:01:54;3.90;99.90
48728;DHT22;34527;45.618;5.130;2023-12-20T07:04:20;4.00;99.90
48728;DHT22;34527;45.618;5.130;2023-12-20T07:06:47;3.90;99.90
48728;DHT22;34527;45.618;5.130;2023-12-20T07:09:13;3.90;99.90
48728;DHT22;34527;45.618;5.130;2023-12-20T07:11:39;3.90;99.90
48728;DHT22;34527;45.618;5.130;2023-12-20T07:14:05;3.90;99.90
48728;DHT22;34527;45.618;5.130;2023-12-20T07:16:30;3.90;99.90
48728;DHT22;34527;45.618;5.130;2023-12-20T07:18:56;3.90;99.90
48728;DHT22;34527;45.618;5.130;2023-12-20T07:21:22;3.90;99.90
48728;DHT22;34527;45.618;5.130;2023-12-20T07:23:48;4.00;99.90
48728;DHT22;34527;45.618;5.130;2023-12-20T07:26:14;4.00;99.90
48728;DHT22;34527;45.618;5.130;2023-12-20T07:28:40;4.00;99.90
48728;DHT22;34527;45.618;5.130;2023-12-20T07:31:06;4.00;99.90
48728;DHT22;34527;45.618;5.130;2023-12-20T07:33:31;4.00;99.90
48728;DHT22;34527;45.618;5.130;2023-12-20T07:35:59;4.00;99.90
48728;DHT22;34527;45.618;5.130;2023-12-20T07:38:24;4.00;99.90
48728;DHT22;34527;45.618;5.130;2023-12-20T07:40:50;4.00;99.90
48728;DHT22;34527;45.618;5.130;2023-12-20T07:43:15;4.10;99.90
48728;DHT22;34527;45.618;5.130;2023-12-20T07:45:41;4.10;99.90
48728;DHT22;34527;45.618;5.130;2023-12-20T07:48:07;4.10;99.90
48728;DHT22;34527;45.618;5.130;2023-12-20T07:50:33;4.20;99.90
48728;DHT22;34527;45.618;5.130;2023-12-20T07:52:58;4.10;99.90
48728;DHT22;34527;45.618;5.130;2023-12-20T07:55:26;4.20;99.90
48728;DHT22;34527;45.618;5.130;2023-12-20T07:57:52;4.20;99.90
48728;DHT22;34527;45.618;5.130;2023-12-20T08:00:18;4.20;99.90
48728;DHT22;34527;45.618;5.130;2023-12-20T08:02:44;4.20;99.90
48728;DHT22;34527;45.618;5.130;2023-12-20T08:05:10;4.20;99.90
48728;DHT22;34527;45.618;5.130;2023-12-20T08:07:36;4.20;99.90
48728;DHT22;34527;45.618;5.130;2023-12-20T08:10:01;4.20;99.90
48728;DHT22;34527;45.618;5.130;2023-12-20T08:12:27;4.10;99.90
48728;DHT22;34527;45.618;5.130;2023-12-20T08:14:53;4.10;99.90
48728;DHT22;34527;45.618;5.130;2023-12-20T08:17:19;4.10;99.90
48728;DHT22;34527;45.618;5.130;2023-12-20T08:19:45;4.20;99.90
48728;DHT22;34527;45.618;5.130;2023-12-20T08:22:11;4.20;99.90
48728;DHT22;34527;45.618;5.130;2023-12-20T08:24:37;4.20;99.90
48728;DHT22;34527;45.618;5.130;2023-12-20T08:27:04;4.30;99.90
48728;DHT22;34527;45.618;5.130;2023-12-20T08:29:30;4.30;99.90
48728;DHT22;34527;45.618;5.130;2023-12-20T08:31:56;4.30;99.90
48728;DHT22;34527;45.618;5.130;2023-12-20T08:34:22;4.30;99.90
48728;DHT22;34527;45.618;5.130;2023-12-20T08:36:50;4.40;99.90
48728;DHT22;34527;45.618;5.130;2023-12-20T08:39:15;4.40;99.90
48728;DHT22;34527;45.618;5.130;2023-12-20T08:41:41;4.50;99.90
48728;DHT22;34527;45.618;5.130;2023-12-20T08:44:06;4.50;99.90
48728;DHT22;34527;45.618;5.130;2023-12-20T08:46:32;4.50;99.90
48728;DHT22;34527;45.618;5.130;2023-12-20T08:48:58;4.60;99.90
48728;DHT22;34527;45.618;5.130;2023-12-20T08:51:23;4.60;99.90
48728;DHT22;34527;45.618;5.130;2023-12-20T08:53:51;4.60;99.90
48728;DHT22;34527;45.618;5.130;2023-12-20T08:56:16;4.60;99.90
48728;DHT22;34527;45.618;5.130;2023-12-20T08:58:44;4.70;99.90
48728;DHT22;34527;45.618;5.130;2023-12-20T09:01:09;4.70;99.90
48728;DHT22;34527;45.618;5.130;2023-12-20T09:03:35;4.70;99.90
48728;DHT22;34527;45.618;5.130;2023-12-20T09:06:00;4.80;99.90
48728;DHT22;34527;45.618;5.130;2023-12-20T09:08:26;4.80;99.90
48728;DHT22;34527;45.618;5.130;2023-12-20T09:10:51;4.90;99.90
48728;DHT22;34527;45.618;5.130;2023-12-20T09:13:17;4.90;99.90
48728;DHT22;34527;45.618;5.130;2023-12-20T09:15:43;5.00;99.90
48728;DHT22;34527;45.618;5.130;2023-12-20T09:18:09;5.00;99.90
48728;DHT22;34527;45.618;5.130;2023-12-20T09:20:34;5.00;99.90
48728;DHT22;34527;45.618;5.130;2023-12-20T09:23:00;5.00;99.90
48728;DHT22;34527;45.618;5.130;2023-12-20T09:25:26;5.10;99.90
48728;DHT22;34527;45.618;5.130;2023-12-20T09:27:52;5.10;99.90
48728;DHT22;34527;45.618;5.130;2023-12-20T09:30:18;5.00;99.90
48728;DHT22;34527;45.618;5.130;2023-12-20T09:32:45;5.10;99.90
48728;DHT22;34527;45.618;5.130;2023-12-20T09:35:11;5.10;99.90
48728;DHT22;34527;45.618;5.130;2023-12-20T09:37:36;5.20;99.90
48728;DHT22;34527;45.618;5.130;2023-12-20T09:40:03;5.20;99.90
48728;DHT22;34527;45.618;5.130;2023-12-20T09:42:56;5.20;99.90
48728;DHT22;34527;45.618;5.130;2023-12-20T09:45:22;5.20;99.90
48728;DHT22;34527;45.618;5.130;2023-12-20T09:47:49;5.30;99.90
48728;DHT22;34527;45.618;5.130;2023-12-20T09:50:17;5.40;99.90
48728;DHT22;34527;45.618;5.130;2023-12-20T09:52:43;5.40;99.90
48728;DHT22;34527;45.618;5.130;2023-12-20T09:55:10;5.50;99.90
48728;DHT22;34527;45.618;5.130;2023-12-20T09:57:36;5.50;99.90
48728;DHT22;34527;45.618;5.130;2023-12-20T10:00:01;5.50;99.90
48728;DHT22;34527;45.618;5.130;2023-12-20T10:02:29;5.60;99.90
48728;DHT22;34527;45.618;5.130;2023-12-20T10:04:57;5.50;99.90
48728;DHT22;34527;45.618;5.130;2023-12-20T10:07:24;5.60;99.90
48728;DHT22;34527;45.618;5.130;2023-12-20T10:09:51;5.60;99.90
48728;DHT22;34527;45.618;5.130;2023-12-20T10:12:19;5.60;99.90
48728;DHT22;34527;45.618;5.130;2023-12-20T10:14:45;5.70;99.90
48728;DHT22;34527;45.618;5.130;2023-12-20T10:17:10;5.70;99.90
48728;DHT22;34527;45.618;5.130;2023-12-20T10:19:37;5.70;99.90
48728;DHT22;34527;45.618;5.130;2023-12-20T10:22:04;5.70;99.90
48728;DHT22;34527;45.618;5.130;2023-12-20T10:24:30;5.80;99.90
48728;DHT22;34527;45.618;5.130;2023-12-20T10:27:03;5.80;99.90
48728;DHT22;34527;45.618;5.130;2023-12-20T10:29:38;5.90;99.90
48728;DHT22;34527;45.618;5.130;2023-12-20T10:32:26;5.90;99.90
48728;DHT22;34527;45.618;5.130;2023-12-20T10:34:55;6.00;99.90
48728;DHT22;34527;45.618;5.130;2023-12-20T10:37:21;6.10;99.90
48728;DHT22;34527;45.618;5.130;2023-12-20T10:39:50;6.30;99.90
48728;DHT22;34527;45.618;5.130;2023-12-20T10:42:18;6.20;99.90
48728;DHT22;34527;45.618;5.130;2023-12-20T10:44:46;6.20;99.90
48728;DHT22;34527;45.618;5.130;2023-12-20T10:47:13;6.30;99.90
48728;DHT22;34527;45.618;5.130;2023-12-20T10:49:39;6.30;99.90
48728;DHT22;34527;45.618;5.130;2023-12-20T10:52:06;6.30;99.90
48728;DHT22;34527;45.618;5.130;2023-12-20T10:54:33;6.20;99.90
48728;DHT22;34527;45.618;5.130;2023-12-20T10:57:00;6.30;99.90
48728;DHT22;34527;45.618;5.130;2023-12-20T10:59:28;6.20;99.90
48728;DHT22;34527;45.618;5.130;2023-12-20T11:01:55;6.20;99.90
48728;DHT22;34527;45.618;5.130;2023-12-20T11:04:28;6.20;99.90
48728;DHT22;34527;45.618;5.130;2023-12-20T11:06:59;6.20;99.90
48728;DHT22;34527;45.618;5.130;2023-12-20T11:09:38;6.20;99.90
48728;DHT22;34527;45.618;5.130;2023-12-20T11:12:28;6.20;99.90
48728;DHT22;34527;45.618;5.130;2023-12-20T11:14:57;6.30;99.90
48728;DHT22;34527;45.618;5.130;2023-12-20T11:17:28;6.30;99.90
48728;DHT22;34527;45.618;5.130;2023-12-20T11:22:26;6.40;99.90
48728;DHT22;34527;45.618;5.130;2023-12-20T11:24:53;6.40;99.90
48728;DHT22;34527;45.618;5.130;2023-12-20T11:27:19;6.40;99.90
48728;DHT22;34527;45.618;5.130;2023-12-20T11:29:57;6.50;99.90
48728;DHT22;34527;45.618;5.130;2023-12-20T11:34:59;6.60;99.90
48728;DHT22;34527;45.618;5.130;2023-12-20T11:37:29;6.60;99.90
48728;DHT22;34527;45.618;5.130;2023-12-20T11:40:01;6.80;99.90
48728;DHT22;34527;45.618;5.130;2023-12-20T11:42:28;6.80;99.90
48728;DHT22;34527;45.618;5.130;2023-12-20T11:44:53;7.00;99.90
48728;DHT22;34527;45.618;5.130;2023-12-20T11:47:19;7.00;99.90
48728;DHT22;34527;45.618;5.130;2023-12-20T11:49:48;7.00;99.90
48728;DHT22;34527;45.618;5.130;2023-12-20T11:52:14;7.00;99.90
48728;DHT22;34527;45.618;5.130;2023-12-20T11:54:40;7.00;99.90
48728;DHT22;34527;45.618;5.130;2023-12-20T11:57:05;7.10;99.90
48728;DHT22;34527;45.618;5.130;2023-12-20T11:59:31;7.10;99.90
48728;DHT22;34527;45.618;5.130;2023-12-20T12:01:58;7.10;99.90
48728;DHT22;34527;45.618;5.130;2023-12-20T12:04:26;7.10;99.90
48728;DHT22;34527;45.618;5.130;2023-12-20T12:06:52;7.10;99.90
48728;DHT22;34527;45.618;5.130;2023-12-20T12:09:18;7.10;99.90
48728;DHT22;34527;45.618;5.130;2023-12-20T12:11:43;7.10;99.90
48728;DHT22;34527;45.618;5.130;2023-12-20T12:14:09;7.20;99.90
48728;DHT22;34527;45.618;5.130;2023-12-20T12:16:35;7.10;99.90
48728;DHT22;34527;45.618;5.130;2023-12-20T12:19:01;7.10;99.90
48728;DHT22;34527;45.618;5.130;2023-12-20T12:21:27;7.00;99.90
48728;DHT22;34527;45.618;5.130;2023-12-20T12:23:52;6.90;99.90
48728;DHT22;34527;45.618;5.130;2023-12-20T12:26:18;6.90;99.90
48728;DHT22;34527;45.618;5.130;2023-12-20T12:28:44;6.90;99.90
48728;DHT22;34527;45.618;5.130;2023-12-20T12:31:14;6.90;99.90
48728;DHT22;34527;45.618;5.130;2023-12-20T12:33:42;6.90;99.90
48728;DHT22;34527;45.618;5.130;2023-12-20T12:36:10;6.90;99.90
48728;DHT22;34527;45.618;5.130;2023-12-20T12:38:36;7.00;99.90
48728;DHT22;34527;45.618;5.130;2023-12-20T12:41:02;7.00;99.90
48728;DHT22;34527;45.618;5.130;2023-12-20T12:43:28;7.00;99.90
48728;DHT22;34527;45.618;5.130;2023-12-20T12:45:53;7.10;99.90
48728;DHT22;34527;45.618;5.130;2023-12-20T12:48:19;7.10;99.90
48728;DHT22;34527;45.618;5.130;2023-12-20T12:50:46;7.20;99.90
48728;DHT22;34527;45.618;5.130;2023-12-20T12:53:11;7.20;99.90
48728;DHT22;34527;45.618;5.130;2023-12-20T12:55:37;7.20;99.90
48728;DHT22;34527;45.618;5.130;2023-12-20T12:58:03;7.20;99.90
48728;DHT22;34527;45.618;5.130;2023-12-20T13:00:28;7.10;99.90
48728;DHT22;34527;45.618;5.130;2023-12-20T13:02:54;7.10;99.90
48728;DHT22;34527;45.618;5.130;2023-12-20T13:05:19;7.10;99.90
48728;DHT22;34527;45.618;5.130;2023-12-20T13:07:45;7.10;99.90
48728;DHT22;34527;45.618;5.130;2023-12-20T13:10:11;7.10;99.90
48728;DHT22;34527;45.618;5.130;2023-12-20T13:12:37;7.20;99.90
48728;DHT22;34527;45.618;5.130;2023-12-20T13:15:03;7.20;99.90
48728;DHT22;34527;45.618;5.130;2023-12-20T13:17:31;7.30;99.90
48728;DHT22;34527;45.618;5.130;2023-12-20T13:19:57;7.30;99.90
48728;DHT22;34527;45.618;5.130;2023-12-20T13:22:22;7.20;99.90
48728;DHT22;34527;45.618;5.130;2023-12-20T13:24:48;7.30;99.90
48728;DHT22;34527;45.618;5.130;2023-12-20T13:27:13;7.30;99.90
48728;DHT22;34527;45.618;5.130;2023-12-20T13:29:39;7.30;99.90
48728;DHT22;34527;45.618;5.130;2023-12-20T13:32:05;7.40;99.90
48728;DHT22;34527;45.618;5.130;2023-12-20T13:34:31;7.40;99.90
48728;DHT22;34527;45.618;5.130;2023-12-20T13:36:56;7.50;99.90
48728;DHT22;34527;45.618;5.130;2023-12-20T13:39:22;7.50;99.90
48728;DHT22;34527;45.618;5.130;2023-12-20T13:41:47;7.40;99.90
48728;DHT22;34527;45.618;5.130;2023-12-20T13:44:13;7.40;99.90
48728;DHT22;34527;45.618;5.130;2023-12-20T13:46:40;7.30;99.90
48728;DHT22;34527;45.618;5.130;2023-12-20T13:49:06;7.20;99.90
48728;DHT22;34527;45.618;5.130;2023-12-20T13:51:31;7.10;99.90
48728;DHT22;34527;45.618;5.130;2023-12-20T13:53:57;6.90;99.90
48728;DHT22;34527;45.618;5.130;2023-12-20T13:56:23;6.90;99.90
48728;DHT22;34527;45.618;5.130;2023-12-20T13:58:49;6.80;99.90
48728;DHT22;34527;45.618;5.130;2023-12-20T14:01:16;6.80;99.90
48728;DHT22;34527;45.618;5.130;2023-12-20T14:03:41;6.80;99.90
48728;DHT22;34527;45.618;5.130;2023-12-20T14:06:07;6.90;99.90
48728;DHT22;34527;45.618;5.130;2023-12-20T14:08:33;6.80;99.90
48728;DHT22;34527;45.618;5.130;2023-12-20T14:10:58;6.80;99.90
48728;DHT22;34527;45.618;5.130;2023-12-20T14:13:24;6.80;99.90
48728;DHT22;34527;45.618;5.130;2023-12-20T14:15:49;6.80;99.90
48728;DHT22;34527;45.618;5.130;2023-12-20T14:18:15;6.80;99.90
48728;DHT22;34527;45.618;5.130;2023-12-20T14:20:41;6.70;99.90
48728;DHT22;34527;45.618;5.130;2023-12-20T14:23:08;6.70;99.90
48728;DHT22;34527;45.618;5.130;2023-12-20T14:25:35;6.70;99.90
48728;DHT22;34527;45.618;5.130;2023-12-20T14:28:03;6.60;99.90
48728;DHT22;34527;45.618;5.130;2023-12-20T14:30:29;6.60;99.90
48728;DHT22;34527;45.618;5.130;2023-12-20T14:32:54;6.50;99.90
48728;DHT22;34527;45.618;5.130;2023-12-20T14:35:20;6.50;99.90
48728;DHT22;34527;45.618;5.130;2023-12-20T14:37:45;6.50;99.90
48728;DHT22;34527;45.618;5.130;2023-12-20T14:40:11;6.50;99.90
48728;DHT22;34527;45.618;5.130;2023-12-20T14:42:41;6.50;99.90
48728;DHT22;34527;45.618;5.130;2023-12-20T14:45:07;6.50;99.90
48728;DHT22;34527;45.618;5.130;2023-12-20T14:47:33;6.40;99.90
48728;DHT22;34527;45.618;5.130;2023-12-20T14:49:59;6.40;99.90
48728;DHT22;34527;45.618;5.130;2023-12-20T14:52:24;6.40;99.90
48728;DHT22;34527;45.618;5.130;2023-12-20T14:54:50;6.40;99.90
48728;DHT22;34527;45.618;5.130;2023-12-20T14:57:15;6.30;99.90
48728;DHT22;34527;45.618;5.130;2023-12-20T14:59:41;6.30;99.90
48728;DHT22;34527;45.618;5.130;2023-12-20T15:02:08;6.30;99.90
48728;DHT22;34527;45.618;5.130;2023-12-20T15:04:34;6.40;99.90
48728;DHT22;34527;45.618;5.130;2023-12-20T15:06:59;6.30;99.90
48728;DHT22;34527;45.618;5.130;2023-12-20T15:09:26;6.40;99.90
48728;DHT22;34527;45.618;5.130;2023-12-20T15:11:53;6.40;99.90
48728;DHT22;34527;45.618;5.130;2023-12-20T15:14:18;6.40;99.90
48728;DHT22;34527;45.618;5.130;2023-12-20T15:16:47;6.30;99.90
48728;DHT22;34527;45.618;5.130;2023-12-20T15:19:13;6.30;99.90
48728;DHT22;34527;45.618;5.130;2023-12-20T15:21:39;6.30;99.90
48728;DHT22;34527;45.618;5.130;2023-12-20T15:24:09;6.30;99.90
48728;DHT22;34527;45.618;5.130;2023-12-20T15:26:41;6.30;99.90
48728;DHT22;34527;45.618;5.130;2023-12-20T15:29:07;6.30;99.90
48728;DHT22;34527;45.618;5.130;2023-12-20T15:31:34;6.30;99.90
48728;DHT22;34527;45.618;5.130;2023-12-20T15:34:01;6.30;99.90
48728;DHT22;34527;45.618;5.130;2023-12-20T15:36:26;6.30;99.90
48728;DHT22;34527;45.618;5.130;2023-12-20T15:38:52;6.30;99.90
48728;DHT22;34527;45.618;5.130;2023-12-20T15:41:22;6.40;99.90
48728;DHT22;34527;45.618;5.130;2023-12-20T15:43:49;6.40;99.90